Latest Weather Observations for Learmonth

IDW60801

Issued at 4:33 pm WST Tuesday 22 October 2019 (issued every 10 minutes, with the page automatically refreshed every 10 minutes)

About weather observations | Map of weather stations | Latest weather observations for WA | Other Formats
Station Details ID: 005007 Name: LEARMONTH AIRPORT Lat: -22.24 Lon: 114.10 Height: 5.0 m
Data from the previous 72 hours. | See also: Recent months at Learmonth
Date/Time
WST
Temp
°C
App
Temp
°C
Dew
Point
°C
Rel
Hum
%
Delta-T
°C
Wind Press
QNH
hPa
Press
MSL
hPa
Rain since
9am
mm
Dir  Spd
km/h
Gust
km/h
Spd
kts
Gust
kts
22/04:30pm 36.2 30.6 7.3 17 16.1 WSW 26 37 14 20 1012.2 1012.1 0.0
22/04:00pm 37.1 30.9 6.2 15 17.0 WSW 28 37 15 20 1012.1 1012.0 0.0
22/03:30pm 37.4 31.8 7.3 16 16.9 WSW 26 35 14 19 1012.1 1012.0 0.0
22/03:00pm 36.7 34.1 7.7 17 16.3 ENE 11 15 6 8 1012.2 1012.1 0.0
22/02:30pm 36.9 32.8 6.0 15 17.0 ENE 17 22 9 12 1012.3 1012.2 0.0
22/02:00pm 37.0 33.5 7.0 16 16.7 E 15 24 8 13 1012.8 1012.7 0.0
22/01:30pm 36.6 32.4 7.6 17 16.3 E 19 24 10 13 1013.2 1013.1 0.0
22/01:00pm 36.1 32.2 7.2 17 16.1 E 17 24 9 13 1013.8 1013.7 0.0
22/12:30pm 34.8 30.7 8.5 20 14.8 E 20 26 11 14 1014.3 1014.2 0.0
22/12:00pm 34.4 30.4 8.2 20 14.7 E 19 24 10 13 1014.8 1014.7 0.0
22/11:30am 34.1 30.4 8.0 20 14.6 E 17 22 9 12 1015.3 1015.2 0.0
22/11:00am 34.1 31.0 7.2 19 14.8 SE 13 20 7 11 1015.9 1015.8 0.0
22/10:30am 33.2 30.2 7.9 21 14.0 SE 13 24 7 13 1016.3 1016.2 0.0
22/10:00am 32.0 30.7 10.1 26 12.5 SE 7 15 4 8 1016.5 1016.4 0.0
22/09:30am 30.4 30.5 12.8 34 10.4 SSE 4 15 2 8 1016.9 1016.8 0.0
22/09:00am 27.9 27.3 14.5 44 8.1 SSW 11 17 6 9 1017.0 1016.9 0.0
22/08:30am 25.9 24.4 15.3 52 6.4 SSW 17 22 9 12 1016.9 1016.8 0.0
22/08:00am 24.7 23.6 15.3 56 5.6 SSW 15 22 8 12 1016.7 1016.6 0.0
22/07:30am 22.5 21.8 15.4 64 4.2 SW 13 17 7 9 1016.5 1016.4 0.0
22/07:00am 21.2 20.8 15.3 69 3.5 SW 11 15 6 8 1016.3 1016.2 0.0
22/06:30am 20.8 20.8 15.1 70 3.4 SW 9 13 5 7 1015.6 1015.5 0.0
22/06:00am 19.0 19.0 14.3 74 2.7 SW 7 9 4 5 1015.3 1015.2 0.0
22/05:30am 19.3 18.6 14.3 73 2.9 SW 11 15 6 8 1015.0 1014.9 0.0
22/05:00am 19.9 18.5 14.5 71 3.1 SW 15 20 8 11 1014.9 1014.8 0.0
22/04:30am 19.6 18.7 14.8 74 2.8 WSW 13 19 7 10 1014.7 1014.6 0.0
22/04:00am 19.7 18.6 15.4 76 2.5 SW 15 19 8 10 1014.7 1014.6 0.0
22/03:30am 19.0 17.8 15.1 78 2.3 SW 15 19 8 10 1015.0 1014.9 0.0
22/03:00am 19.3 18.1 15.0 76 2.5 SW 15 19 8 10 1015.0 1014.9 0.0
22/02:30am 19.7 17.7 14.9 74 2.8 SW 19 24 10 13 1015.0 1014.9 0.0
22/02:00am 20.3 18.3 14.9 71 3.2 SSW 19 26 10 14 1015.4 1015.3 0.0
22/01:30am 19.8 18.9 14.8 73 2.9 SSW 13 17 7 9 1015.7 1015.6 0.0
22/01:00am 20.2 19.1 15.4 74 2.8 SW 15 19 8 10 1016.0 1015.9 0.0
22/12:30am 20.6 19.7 15.8 74 2.9 SW 15 17 8 9 1016.2 1016.1 0.0
22/12:00am 21.0 19.5 16.2 74 2.9 SW 19 26 10 14 1016.3 1016.2 0.0
 
Date/Time
WST
Temp
°C
App
Temp
°C
Dew
Point
°C
Rel
Hum
%
Delta-T
°C
Wind Press
QNH
hPa
Press
MSL
hPa
Rain since
9am
mm
Dir  Spd
km/h
Gust
km/h
Spd
kts
Gust
kts
21/11:30pm 21.5 19.5 16.5 73 3.0 SSW 22 28 12 15 1016.0 1015.9 0.0
21/11:00pm 21.7 19.6 16.2 71 3.3 SSW 22 30 12 16 1016.0 1015.9 0.0
21/10:30pm 22.4 19.7 15.5 65 4.1 SW 24 33 13 18 1016.3 1016.2 0.0
21/10:00pm 22.9 19.8 14.5 59 4.9 SW 24 32 13 17 1016.3 1016.2 0.0
21/09:30pm 23.0 19.3 13.8 56 5.4 SW 26 35 14 19 1016.4 1016.3 0.0
21/09:00pm 23.3 19.5 13.5 54 5.7 SW 26 35 14 19 1016.5 1016.4 0.0
21/08:30pm 22.9 19.7 15.2 62 4.6 SSW 26 37 14 20 1016.3 1016.2 0.0
21/08:00pm 23.7 21.0 15.7 61 4.8 SSW 24 30 13 16 1016.0 1015.9 0.0
21/07:30pm 24.5 21.2 16.0 59 5.2 SW 28 37 15 20 1015.7 1015.6 0.0
21/07:00pm 26.0 23.3 15.7 53 6.3 SW 24 33 13 18 1015.2 1015.1 0.0
21/06:30pm 28.9 24.3 12.3 36 9.7 SW 28 35 15 19 1014.8 1014.7 0.0
21/06:00pm 31.2 26.3 10.0 27 12.0 SW 26 35 14 19 1014.3 1014.2 0.0
21/05:30pm 33.4 28.5 10.1 24 13.4 SW 26 33 14 18 1013.6 1013.5 0.0
21/05:00pm 35.6 30.9 7.6 18 15.6 SW 22 32 12 17 1013.4 1013.3 0.0
21/04:30pm 35.7 31.0 7.7 18 15.7 SSW 22 30 12 16 1013.1 1013.0 0.0
21/04:00pm 36.8 32.1 7.8 17 16.3 SSW 22 30 12 16 1013.1 1013.0 0.0
21/03:30pm 37.6 32.7 8.4 17 16.7 SSW 24 33 13 18 1012.8 1012.7 0.0
21/03:00pm 38.1 33.7 8.8 17 16.9 SSW 22 32 12 17 1012.8 1012.7 0.0
21/02:30pm 37.1 33.6 8.8 18 16.2 E 17 22 9 12 1013.0 1012.9 0.0
21/02:00pm 37.7 33.3 7.6 16 17.0 E 20 28 11 15 1013.5 1013.4 0.0
21/01:30pm 36.9 34.5 8.7 18 16.1 ESE 11 22 6 12 1013.8 1013.7 0.0
21/01:00pm 38.3 35.1 5.0 13 18.1 SSE 11 26 6 14 1014.2 1014.1 0.0
21/12:30pm 37.0 34.0 6.1 15 17.0 SSW 11 19 6 10 1014.6 1014.5 0.0
21/12:00pm 36.5 33.1 7.5 17 16.2 S 15 24 8 13 1014.9 1014.8 0.0
21/11:30am 34.8 30.5 7.8 19 15.1 SSE 20 30 11 16 1015.4 1015.3 0.0
21/11:00am 34.2 30.5 8.0 20 14.6 SSE 17 28 9 15 1015.8 1015.7 0.0
21/10:30am 32.9 29.8 9.0 23 13.5 SSE 15 24 8 13 1016.2 1016.1 0.0
21/10:00am 32.2 28.6 8.4 23 13.2 SSE 17 22 9 12 1016.6 1016.5 0.0
21/09:30am 30.2 27.0 11.2 31 11.0 S 19 24 10 13 1016.7 1016.6 0.0
21/09:00am 28.7 26.2 12.2 36 9.6 S 17 22 9 12 1016.8 1016.7 0.0
21/08:30am 25.7 23.5 13.2 46 7.3 SSW 17 24 9 13 1016.9 1016.8 0.0
21/08:00am 24.9 22.3 13.8 50 6.5 SSW 20 26 11 14 1016.9 1016.8 0.0
21/07:30am 22.5 19.5 13.8 58 5.1 SSW 22 26 12 14 1016.9 1016.8 0.0
21/07:00am 20.7 18.2 14.1 66 3.8 SSW 20 24 11 13 1016.7 1016.6 0.0
21/06:30am 19.0 17.1 14.3 74 2.7 SW 17 19 9 10 1016.6 1016.5 0.0
21/06:00am 18.5 16.6 14.2 76 2.5 SW 17 22 9 12 1016.0 1015.9 0.0
21/05:30am 18.4 15.9 14.1 76 2.5 SW 20 24 11 13 1015.8 1015.7 0.0
21/05:00am 18.4 16.1 14.1 76 2.5 SW 19 22 10 12 1015.7 1015.6 0.0
21/04:30am 18.8 16.5 14.1 74 2.7 SSW 19 24 10 13 1015.6 1015.5 0.0
21/04:00am 19.1 16.2 14.1 73 2.9 SSW 22 28 12 15 1015.4 1015.3 0.0
21/03:30am 19.3 17.0 14.1 72 3.0 SSW 19 24 10 13 1015.5 1015.4 0.0
21/03:00am 19.7 17.2 14.1 70 3.2 SSW 20 30 11 16 1015.5 1015.4 0.0
21/02:30am 20.0 16.4 14.1 69 3.4 SSW 26 32 14 17 1014.9 1014.8 0.0
21/02:00am 20.4 17.7 14.5 69 3.4 SW 22 30 12 16 1015.3 1015.2 0.0
21/01:30am 20.3 17.6 14.7 70 3.3 SW 22 28 12 15 1015.5 1015.4 0.0
21/01:00am 20.5 17.6 15.1 71 3.2 SW 24 30 13 16 1015.6 1015.5 0.0
21/12:30am 20.7 18.3 15.5 72 3.1 SW 22 32 12 17 1015.6 1015.5 0.0
21/12:00am 20.9 18.8 16.1 74 2.9 SSW 22 30 12 16 1015.8 1015.7 0.0
 
Date/Time
WST
Temp
°C
App
Temp
°C
Dew
Point
°C
Rel
Hum
%
Delta-T
°C
Wind Press
QNH
hPa
Press
MSL
hPa
Rain since
9am
mm
Dir  Spd
km/h
Gust
km/h
Spd
kts
Gust
kts
20/11:30pm 21.0 19.5 16.8 77 2.6 SSW 20 28 11 15 1015.9 1015.8 0.0
20/11:00pm 21.1 19.7 17.1 78 2.4 SSW 20 28 11 15 1016.1 1016.0 0.0
20/10:30pm 21.5 20.1 16.9 75 2.8 SSW 20 28 11 15 1016.2 1016.1 0.0
20/10:00pm 21.9 20.0 16.8 73 3.1 SW 22 30 12 16 1016.1 1016.0 0.0
20/09:30pm 22.2 20.1 17.1 73 3.1 SW 24 30 13 16 1016.1 1016.0 0.0
20/09:00pm 22.3 19.4 17.0 72 3.2 SW 28 35 15 19 1016.1 1016.0 0.0
20/08:30pm 22.8 20.3 17.0 70 3.6 SW 26 35 14 19 1016.0 1015.9 0.0
20/08:00pm 23.4 20.4 16.9 67 4.0 SW 28 37 15 20 1015.8 1015.7 0.0
20/07:30pm 24.0 21.8 16.8 64 4.4 SW 24 35 13 19 1015.5 1015.4 0.0
20/07:00pm 24.8 22.1 16.5 60 5.1 SW 26 35 14 19 1015.2 1015.1 0.0
20/06:30pm 26.7 24.4 15.7 51 6.7 SSW 22 30 12 16 1014.9 1014.8 0.0
20/06:00pm 28.9 25.6 13.9 39 9.0 SSW 24 30 13 16 1014.7 1014.6 0.0
20/05:30pm 30.6 26.5 13.8 35 10.1 SSW 28 37 15 20 1014.2 1014.1 0.0
20/05:00pm 32.6 27.8 12.8 30 11.8 SSW 30 39 16 21 1013.6 1013.5 0.0
20/04:30pm 34.5 31.2 11.6 25 13.5 SSW 20 32 11 17 1013.4 1013.3 0.0
20/04:00pm 33.5 30.0 3.3 15 15.6 NNE 11 15 6 8 1013.4 1013.3 0.0
20/03:30pm 33.7 29.8 3.5 15 15.7 NNE 13 19 7 10 1013.5 1013.4 0.0
20/03:00pm 34.3 30.3 6.6 18 15.1 NE 17 24 9 13 1013.6 1013.5 0.0
20/02:30pm 34.1 29.9 5.6 17 15.3 ENE 17 22 9 12 1013.7 1013.6 0.0
20/02:00pm 34.1 29.1 4.7 16 15.6 E 20 26 11 14 1013.9 1013.8 0.0
20/01:30pm 34.2 28.5 2.9 14 16.1 E 22 28 12 15 1014.2 1014.1 0.0
20/01:00pm 34.0 28.8 5.5 17 15.3 E 22 28 12 15 1014.6 1014.5 0.0
20/12:30pm 35.5 32.6 4.9 15 16.4 SSW 9 22 5 12 1014.9 1014.8 0.0
20/12:00pm 34.3 31.3 5.8 17 15.4 S 11 22 6 12 1015.3 1015.2 0.0
20/11:30am 32.8 30.2 6.2 19 14.3 SSW 9 20 5 11 1015.8 1015.7 0.0
20/11:00am 32.4 29.6 8.6 23 13.3 SE 13 20 7 11 1016.1 1016.0 0.0
20/10:30am 30.9 27.5 6.0 21 13.2 SE 13 22 7 12 1016.3 1016.2 0.0
20/10:00am 30.4 26.9 7.0 23 12.6 S 15 22 8 12 1016.7 1016.6 0.0
20/09:30am 29.1 26.6 11.2 33 10.3 S 15 20 8 11 1016.9 1016.8 0.0
20/09:00am 26.5 24.4 13.6 45 7.6 SSW 17 24 9 13 1017.1 1017.0 0.0
20/08:30am 24.7 22.8 15.3 56 5.7 SSW 19 22 10 12 1017.2 1017.1 0.0
20/08:00am 23.0 21.2 16.1 65 4.2 SSW 20 24 11 13 1017.3 1017.2 0.0
20/07:30am 21.2 19.6 16.4 74 2.9 SSW 20 24 11 13 1017.4 1017.3 0.0
20/07:00am 20.0 19.1 16.8 82 1.9 SSW 17 20 9 11 1017.1 1017.0 0.0
20/06:30am 18.3 17.6 16.5 89 1.1 SW 15 20 8 11 1016.9 1016.8 0.0
20/06:00am 17.6 17.2 16.1 91 0.9 SW 13 17 7 9 1016.7 1016.6 0.0
20/05:30am 17.6 16.8 16.1 91 0.9 SW 15 20 8 11 1016.4 1016.3 0.0
20/05:00am 17.7 16.5 16.2 91 0.9 SW 17 22 9 12 1016.2 1016.1 0.0
20/04:30am 17.8 17.1 16.3 91 0.9 SW 15 17 8 9 1016.0 1015.9 0.0
20/04:00am 18.0 17.3 16.5 91 0.9 SW 15 19 8 10 1015.9 1015.8 0.0
20/03:30am 18.1 17.9 16.6 91 0.9 SW 13 17 7 9 1015.8 1015.7 0.0
20/03:00am 18.4 17.6 17.1 92 0.8 SW 17 19 9 10 1015.4 1015.3 0.0
20/02:30am 18.7 18.8 17.4 92 0.8 SW 13 17 7 9 1015.5 1015.4 0.0
20/02:00am 19.2 18.7 17.7 91 0.9 SSW 17 24 9 13 1015.5 1015.4 0.0
20/01:30am 19.6 18.8 18.1 91 0.9 SSW 19 24 10 13 1015.4 1015.3 0.0
20/01:00am 19.7 19.4 18.2 91 0.9 SSW 17 22 9 12 1015.6 1015.5 0.0
20/12:30am 19.9 19.2 18.2 90 1.1 SSW 19 26 10 14 1015.7 1015.6 0.0
20/12:00am 20.2 19.8 18.1 88 1.3 SSW 17 22 9 12 1015.9 1015.8 0.0
 
Date/Time
WST
Temp
°C
App
Temp
°C
Dew
Point
°C
Rel
Hum
%
Delta-T
°C
Wind Press
QNH
hPa
Press
MSL
hPa
Rain since
9am
mm
Dir  Spd
km/h
Gust
km/h
Spd
kts
Gust
kts
19/11:30pm 20.6 20.3 17.4 82 2.0 SSW 15 19 8 10 1015.9 1015.8 0.0
19/11:00pm 20.6 20.6 17.2 81 2.1 SSW 13 19 7 10 1016.0 1015.9 0.0
19/10:30pm 20.9 20.7 17.5 81 2.1 SSW 15 20 8 11 1016.0 1015.9 0.0
19/10:00pm 21.2 20.8 17.2 78 2.4 SW 15 20 8 11 1016.0 1015.9 0.0
19/09:30pm 21.8 21.0 17.0 74 2.9 SW 17 22 9 12 1015.9 1015.8 0.0
19/09:00pm 22.4 20.6 16.9 71 3.4 SW 22 32 12 17 1015.6 1015.5 0.0
19/08:30pm 23.0 20.3 15.6 63 4.4 SW 24 32 13 17 1015.4 1015.3 0.0
19/08:00pm 24.0 20.8 13.2 50 6.3 SW 22 30 12 16 1015.0 1014.9 0.0
19/07:30pm 25.2 21.2 10.3 39 8.3 SW 22 26 12 14 1014.5 1014.4 0.0
19/07:00pm 27.0 23.1 10.7 36 9.2 SW 22 28 12 15 1014.1 1014.0 0.0
19/06:30pm 28.9 24.7 9.6 30 10.8 SW 22 30 12 16 1013.8 1013.7 0.0
19/06:00pm 30.5 25.4 7.7 24 12.4 SW 24 30 13 16 1013.3 1013.2 0.0
19/05:30pm 31.8 27.1 10.5 27 12.2 SW 26 32 14 17 1013.0 1012.9 0.0
19/05:00pm 33.4 29.5 10.7 25 13.2 WSW 22 28 12 15 1012.8 1012.7 0.0

Other formats

Comma delimited format used in spreadsheet applications
http://www.bom.gov.au/fwo/IDW60801/IDW60801.94302.axf

JavaScript Object Notation format (JSON) in row-major order
http://www.bom.gov.au/fwo/IDW60801/IDW60801.94302.json

Data quality

Most of these data are generated automatically and are frequently updated. Quality checks on data are not normally performed. It is possible for incorrect values to appear. Refer to information at About Latest Weather Observations and please check the disclaimer before using these data.